Time;durP1;ratioP1;P1;durP2;ratioP2;P2;SDS_P1;SDS_P2;PMS_P1;PMS_P2;Temp;Humidity;BMP_temperature;BMP_pressure;BME280_temperature;BME280_humidity;BME280_pressure;Samples;Min_cycle;Max_cycle;Signal;HPM_P1;HPM_P2
2023/10/19 00:02:32;;;;;;;;;;;19.70;57.90;;;;;;6316131;28;19908;-72
2023/10/19 00:05:33;;;;;;;;;;;19.70;57.80;;;;;;6314377;28;19916;-70
2023/10/19 00:08:40;;;;;;;;;;;19.60;57.80;;;;;;6318981;28;19916;-73
2023/10/19 00:11:41;;;;;;;;;;;19.60;57.80;;;;;;6317812;28;19915;-73
2023/10/19 00:14:41;;;;;;;;;;;19.60;57.70;;;;;;6319104;28;19908;-71
2023/10/19 00:17:44;;;;;;;;;;;19.70;57.80;;;;;;6317738;28;19919;-73
2023/10/19 00:20:52;;;;;;;;;;;19.60;57.70;;;;;;6318173;28;19944;-71
2023/10/19 00:23:57;;;;;;;;;;;19.70;57.80;;;;;;6309274;28;19957;-72
2023/10/19 00:27:05;;;;;;;;;;;19.60;57.80;;;;;;6318479;28;19916;-73
2023/10/19 00:30:06;;;;;;;;;;;19.60;57.80;;;;;;6309477;28;19919;-72
2023/10/19 00:33:16;;;;;;;;;;;19.60;57.80;;;;;;6316842;28;19908;-73
2023/10/19 00:36:20;;;;;;;;;;;19.70;57.90;;;;;;6314485;28;20294;-72
2023/10/19 00:39:24;;;;;;;;;;;19.60;57.80;;;;;;6315671;28;19974;-73
2023/10/19 00:42:30;;;;;;;;;;;19.70;57.90;;;;;;6316697;28;19915;-72
2023/10/19 00:45:33;;;;;;;;;;;19.70;58.00;;;;;;6318453;28;19916;-73
2023/10/19 00:48:34;;;;;;;;;;;19.60;57.80;;;;;;6317247;28;19912;-72
2023/10/19 00:54:58;;;;;;;;;;;19.70;57.80;;;;;;6318295;28;19908;-73
2023/10/19 00:58:03;;;;;;;;;;;19.60;58.50;;;;;;6316650;28;20302;-71
2023/10/19 01:01:07;;;;;;;;;;;19.60;57.80;;;;;;6302073;28;19957;-73
2023/10/19 01:04:07;;;;;;;;;;;19.60;57.80;;;;;;6317817;28;20461;-73
2023/10/19 01:07:27;;;;;;;;;;;19.60;57.80;;;;;;6318056;28;20024;-73
2023/10/19 01:10:28;;;;;;;;;;;19.70;57.90;;;;;;6314494;28;19951;-72
2023/10/19 01:13:34;;;;;;;;;;;19.60;57.80;;;;;;6316806;28;20406;-72
2023/10/19 01:16:35;;;;;;;;;;;19.60;57.80;;;;;;6315150;28;20386;-73
2023/10/19 01:19:36;;;;;;;;;;;19.70;57.90;;;;;;6316403;28;19912;-73
2023/10/19 01:22:36;;;;;;;;;;;19.70;57.90;;;;;;6317813;28;19970;-73
2023/10/19 01:26:29;;;;;;;;;;;19.60;57.80;;;;;;6308098;28;19915;-72
2023/10/19 01:29:14;;;;;;;;;;;19.60;57.80;;;;;;6308102;28;19912;-72
2023/10/19 01:32:15;;;;;;;;;;;19.60;57.90;;;;;;6308024;28;20011;-72
2023/10/19 01:35:16;;;;;;;;;;;19.70;57.90;;;;;;6310185;28;20172;-73
2023/10/19 01:38:16;;;;;;;;;;;19.60;57.80;;;;;;6317685;28;19912;-73
2023/10/19 01:41:20;;;;;;;;;;;19.70;57.90;;;;;;6317577;28;19922;-72
2023/10/19 01:44:21;;;;;;;;;;;19.70;57.90;;;;;;6317645;28;20260;-73
2023/10/19 01:47:22;;;;;;;;;;;19.70;57.90;;;;;;6316329;28;19912;-73
2023/10/19 01:50:23;;;;;;;;;;;19.60;57.80;;;;;;6317318;28;19909;-72
2023/10/19 01:53:25;;;;;;;;;;;19.60;57.80;;;;;;6304555;28;19954;-73
2023/10/19 01:56:26;;;;;;;;;;;19.60;57.90;;;;;;6316107;28;19916;-72
2023/10/19 01:59:27;;;;;;;;;;;19.60;57.80;;;;;;6317311;28;20302;-71
2023/10/19 02:02:28;;;;;;;;;;;19.70;58.00;;;;;;6317365;28;19987;-73
2023/10/19 02:05:39;;;;;;;;;;;19.60;57.80;;;;;;6316800;28;19920;-73
2023/10/19 02:08:39;;;;;;;;;;;19.60;57.80;;;;;;6316230;28;20351;-71
2023/10/19 02:11:46;;;;;;;;;;;19.60;57.80;;;;;;6318934;28;19912;-73
2023/10/19 02:14:46;;;;;;;;;;;19.60;57.80;;;;;;6321545;28;20374;-69
2023/10/19 02:17:47;;;;;;;;;;;19.70;57.90;;;;;;6321781;28;19965;-72
2023/10/19 02:20:48;;;;;;;;;;;19.60;57.80;;;;;;6320383;28;19912;-73
2023/10/19 02:23:50;;;;;;;;;;;19.60;57.80;;;;;;6321744;28;20290;-72
2023/10/19 02:26:53;;;;;;;;;;;19.60;57.90;;;;;;6321352;28;19945;-72
2023/10/19 02:29:53;;;;;;;;;;;19.70;57.90;;;;;;6320007;28;19912;-73
2023/10/19 02:32:54;;;;;;;;;;;19.60;57.80;;;;;;6321394;28;19958;-73
2023/10/19 02:35:57;;;;;;;;;;;19.60;57.80;;;;;;6321363;28;19912;-73
2023/10/19 02:39:07;;;;;;;;;;;19.70;57.90;;;;;;6313158;28;20283;-72
2023/10/19 02:42:08;;;;;;;;;;;19.60;57.80;;;;;;6336705;28;19954;-72
2023/10/19 02:45:09;;;;;;;;;;;19.70;58.00;;;;;;6319822;28;19995;-73
2023/10/19 02:48:12;;;;;;;;;;;19.60;57.80;;;;;;6321172;28;19930;-72
2023/10/19 02:51:13;;;;;;;;;;;19.60;57.80;;;;;;6320722;28;20444;-72
2023/10/19 02:54:24;;;;;;;;;;;19.60;57.80;;;;;;6321173;28;19908;-73
2023/10/19 02:57:24;;;;;;;;;;;19.60;57.80;;;;;;6319234;28;20041;-73
2023/10/19 03:00:32;;;;;;;;;;;19.60;57.80;;;;;;6319677;28;20431;-73
2023/10/19 03:03:33;;;;;;;;;;;19.60;57.80;;;;;;6311105;28;19908;-73
2023/10/19 03:06:33;;;;;;;;;;;19.60;57.80;;;;;;6318649;28;19962;-73
2023/10/19 03:09:37;;;;;;;;;;;19.60;57.80;;;;;;6320491;28;19908;-72
2023/10/19 03:12:37;;;;;;;;;;;19.60;57.90;;;;;;6319095;28;19912;-73
2023/10/19 03:15:42;;;;;;;;;;;19.60;57.80;;;;;;6316619;28;19909;-73
2023/10/19 03:18:43;;;;;;;;;;;19.60;57.90;;;;;;6314794;28;19913;-72
2023/10/19 03:21:43;;;;;;;;;;;19.60;57.90;;;;;;6316539;28;19932;-72
2023/10/19 03:24:44;;;;;;;;;;;19.60;57.90;;;;;;6319499;28;19912;-72
2023/10/19 03:27:45;;;;;;;;;;;19.60;57.80;;;;;;6319412;28;19927;-73
2023/10/19 03:30:47;;;;;;;;;;;19.60;57.90;;;;;;6319598;28;19919;-72
2023/10/19 03:33:49;;;;;;;;;;;19.60;57.80;;;;;;6320259;28;20329;-73
2023/10/19 03:36:50;;;;;;;;;;;19.60;57.80;;;;;;6319489;28;19912;-72
2023/10/19 03:39:51;;;;;;;;;;;19.60;57.80;;;;;;6318250;28;19979;-73
2023/10/19 03:42:54;;;;;;;;;;;19.60;57.80;;;;;;6318431;28;19920;-72
2023/10/19 03:45:55;;;;;;;;;;;19.60;57.90;;;;;;6310331;28;19952;-72
2023/10/19 03:48:59;;;;;;;;;;;19.60;57.80;;;;;;6312924;28;19912;-72
2023/10/19 03:52:02;;;;;;;;;;;19.60;57.80;;;;;;6317017;28;19912;-72
2023/10/19 03:55:11;;;;;;;;;;;19.60;58.00;;;;;;6319390;28;19908;-72
2023/10/19 03:58:12;;;;;;;;;;;19.60;57.90;;;;;;6309475;28;19919;-73
2023/10/19 04:01:16;;;;;;;;;;;19.60;57.90;;;;;;6317850;28;19912;-73
2023/10/19 04:04:17;;;;;;;;;;;19.60;57.90;;;;;;6334854;28;19934;-72
2023/10/19 04:07:21;;;;;;;;;;;19.60;57.90;;;;;;6317992;28;19965;-73
2023/10/19 04:11:22;;;;;;;;;;;19.60;57.80;;;;;;6318573;28;19995;-72
2023/10/19 04:13:53;;;;;;;;;;;19.60;57.90;;;;;;6318025;28;19953;-72
2023/10/19 04:16:55;;;;;;;;;;;19.60;57.90;;;;;;6312064;28;19947;-71
2023/10/19 04:19:56;;;;;;;;;;;19.60;57.90;;;;;;6316597;28;20294;-72
2023/10/19 04:22:58;;;;;;;;;;;19.60;57.80;;;;;;6318615;28;19915;-72
2023/10/19 04:26:04;;;;;;;;;;;19.60;57.80;;;;;;6311001;28;19916;-73
2023/10/19 04:29:11;;;;;;;;;;;19.60;57.90;;;;;;6318467;28;20443;-72
2023/10/19 04:32:14;;;;;;;;;;;19.60;57.90;;;;;;6309617;28;19983;-72
2023/10/19 04:35:21;;;;;;;;;;;19.60;57.80;;;;;;6313707;28;19908;-73
2023/10/19 04:38:22;;;;;;;;;;;19.60;57.90;;;;;;6313168;28;19914;-73
2023/10/19 04:41:23;;;;;;;;;;;19.60;57.90;;;;;;6317926;28;20514;-73
2023/10/19 04:44:23;;;;;;;;;;;19.60;57.80;;;;;;6317224;28;19931;-73
2023/10/19 04:47:24;;;;;;;;;;;19.60;57.80;;;;;;6316872;28;19956;-73
2023/10/19 04:50:25;;;;;;;;;;;19.60;57.80;;;;;;6311006;28;20386;-68
2023/10/19 04:53:25;;;;;;;;;;;19.60;57.80;;;;;;6308366;28;19927;-69
2023/10/19 04:56:26;;;;;;;;;;;19.60;57.70;;;;;;6314725;28;19909;-69
2023/10/19 04:59:26;;;;;;;;;;;19.60;57.70;;;;;;6312569;28;19935;-68
2023/10/19 05:02:27;;;;;;;;;;;19.70;57.80;;;;;;6312254;28;19966;-68
2023/10/19 05:05:28;;;;;;;;;;;19.60;57.70;;;;;;6317583;28;20007;-68
2023/10/19 05:08:29;;;;;;;;;;;19.70;57.80;;;;;;6316650;28;19915;-68
2023/10/19 05:11:30;;;;;;;;;;;19.70;58.00;;;;;;6315448;28;19908;-70
2023/10/19 05:14:30;;;;;;;;;;;19.60;57.80;;;;;;6321756;28;19913;-68
2023/10/19 05:17:31;;;;;;;;;;;19.60;57.80;;;;;;6319909;28;19908;-68
2023/10/19 05:20:32;;;;;;;;;;;19.60;57.80;;;;;;6316101;28;19908;-69
2023/10/19 05:23:32;;;;;;;;;;;19.60;57.80;;;;;;6315324;28;20334;-69
2023/10/19 05:26:33;;;;;;;;;;;19.60;57.80;;;;;;6313050;28;19912;-70
2023/10/19 05:29:34;;;;;;;;;;;19.60;57.80;;;;;;6316209;28;19908;-68
2023/10/19 05:32:34;;;;;;;;;;;19.60;57.90;;;;;;6314583;28;19940;-66
2023/10/19 05:35:40;;;;;;;;;;;19.60;57.90;;;;;;6315753;28;19985;-68
2023/10/19 05:38:41;;;;;;;;;;;19.60;57.90;;;;;;6314474;28;19920;-67
2023/10/19 05:41:41;;;;;;;;;;;19.70;57.90;;;;;;6315257;28;19912;-68
2023/10/19 05:44:42;;;;;;;;;;;19.60;57.90;;;;;;6316478;28;19919;-68
2023/10/19 05:47:44;;;;;;;;;;;19.60;57.80;;;;;;6321155;28;19916;-68
2023/10/19 05:50:44;;;;;;;;;;;19.70;57.80;;;;;;6325338;28;19932;-68
2023/10/19 05:53:45;;;;;;;;;;;19.80;57.80;;;;;;6319788;28;19916;-68
2023/10/19 05:56:45;;;;;;;;;;;19.80;57.70;;;;;;6320950;28;19955;-68
2023/10/19 05:59:47;;;;;;;;;;;19.80;57.40;;;;;;6318259;28;19915;-68
2023/10/19 06:02:49;;;;;;;;;;;20.00;57.80;;;;;;6328473;28;19908;-68
2023/10/19 06:05:50;;;;;;;;;;;20.00;57.50;;;;;;6321402;28;19916;-68
2023/10/19 06:08:53;;;;;;;;;;;20.00;57.80;;;;;;6320323;28;19918;-68
2023/10/19 06:11:53;;;;;;;;;;;20.00;57.60;;;;;;6323821;28;19916;-68
2023/10/19 06:14:54;;;;;;;;;;;20.00;57.80;;;;;;6325622;28;19908;-68
2023/10/19 06:17:55;;;;;;;;;;;20.00;57.90;;;;;;6322435;28;19962;-68
2023/10/19 06:20:56;;;;;;;;;;;19.90;57.80;;;;;;6314681;28;20884;-68
2023/10/19 06:23:57;;;;;;;;;;;19.90;57.90;;;;;;6321658;28;19912;-68
2023/10/19 06:26:58;;;;;;;;;;;19.90;58.20;;;;;;6320735;28;19952;-67
2023/10/19 06:29:59;;;;;;;;;;;19.80;58.20;;;;;;6322764;28;19916;-66
2023/10/19 06:33:03;;;;;;;;;;;19.80;58.30;;;;;;6322048;28;19966;-66
2023/10/19 06:36:03;;;;;;;;;;;19.80;58.40;;;;;;6317591;28;20451;-69
2023/10/19 06:39:06;;;;;;;;;;;19.70;58.30;;;;;;6321246;28;19920;-65
2023/10/19 06:42:10;;;;;;;;;;;19.70;58.30;;;;;;6325146;28;19950;-67
2023/10/19 06:45:13;;;;;;;;;;;19.70;58.30;;;;;;6318651;28;19973;-68
2023/10/19 06:48:15;;;;;;;;;;;19.70;58.40;;;;;;6318203;28;19912;-67
2023/10/19 06:51:16;;;;;;;;;;;19.70;58.40;;;;;;6322155;28;20125;-65
2023/10/19 06:54:18;;;;;;;;;;;19.70;58.40;;;;;;6322509;28;19912;-67
2023/10/19 06:57:19;;;;;;;;;;;19.70;58.70;;;;;;6320678;28;19908;-68
2023/10/19 07:00:21;;;;;;;;;;;19.70;58.30;;;;;;6319398;28;20378;-66
2023/10/19 07:03:22;;;;;;;;;;;19.70;58.40;;;;;;6320859;28;19991;-67
2023/10/19 07:06:23;;;;;;;;;;;19.70;58.40;;;;;;6321282;28;19959;-69
2023/10/19 07:09:23;;;;;;;;;;;19.70;58.40;;;;;;6329294;28;19908;-74
2023/10/19 07:12:24;;;;;;;;;;;19.70;58.50;;;;;;6321846;28;19908;-69
2023/10/19 07:15:25;;;;;;;;;;;19.60;58.20;;;;;;6320210;28;20294;-69
2023/10/19 07:18:26;;;;;;;;;;;19.60;57.40;;;;;;6311749;28;19912;-67
2023/10/19 07:21:29;;;;;;;;;;;19.60;56.50;;;;;;6320181;28;19908;-66
2023/10/19 07:24:29;;;;;;;;;;;19.70;54.40;;;;;;6320655;28;19994;-66
2023/10/19 07:27:30;;;;;;;;;;;19.70;55.70;;;;;;6319918;28;19920;-66
2023/10/19 07:30:30;;;;;;;;;;;19.60;54.80;;;;;;6311583;28;19916;-65
2023/10/19 07:33:31;;;;;;;;;;;19.70;55.60;;;;;;6319901;28;19923;-65
2023/10/19 07:36:32;;;;;;;;;;;19.70;55.90;;;;;;6323835;28;19908;-65
2023/10/19 07:39:33;;;;;;;;;;;19.60;56.10;;;;;;6324086;28;19920;-66
2023/10/19 07:42:36;;;;;;;;;;;19.60;56.40;;;;;;6320093;28;19912;-66
2023/10/19 07:45:37;;;;;;;;;;;19.60;56.40;;;;;;6318842;28;19920;-65
2023/10/19 07:48:38;;;;;;;;;;;19.70;56.60;;;;;;6320200;28;20285;-65
2023/10/19 07:51:39;;;;;;;;;;;19.70;56.70;;;;;;6312045;28;19966;-70
2023/10/19 07:54:40;;;;;;;;;;;19.60;56.80;;;;;;6320306;28;20343;-69
2023/10/19 07:57:41;;;;;;;;;;;19.70;57.00;;;;;;6323455;28;19908;-70
2023/10/19 08:00:42;;;;;;;;;;;19.60;57.00;;;;;;6318602;28;19908;-71
2023/10/19 08:03:42;;;;;;;;;;;19.60;56.50;;;;;;6319652;28;20005;-70
2023/10/19 08:06:44;;;;;;;;;;;19.60;54.80;;;;;;6318813;28;19912;-70
2023/10/19 08:09:45;;;;;;;;;;;19.60;54.80;;;;;;6318095;28;19908;-70
2023/10/19 08:12:49;;;;;;;;;;;19.60;54.30;;;;;;6321792;28;19916;-69
2023/10/19 08:15:50;;;;;;;;;;;19.60;52.50;;;;;;6327298;28;19908;-68
2023/10/19 08:18:52;;;;;;;;;;;19.50;52.40;;;;;;6314376;28;19908;-69
2023/10/19 08:21:53;;;;;;;;;;;19.60;52.00;;;;;;6319703;28;19915;-69
2023/10/19 08:24:54;;;;;;;;;;;19.60;51.60;;;;;;6319721;28;19908;-68
2023/10/19 08:27:58;;;;;;;;;;;19.60;53.10;;;;;;6320063;28;19912;-68
2023/10/19 08:31:01;;;;;;;;;;;19.60;53.00;;;;;;6319479;28;20434;-68
2023/10/19 08:34:02;;;;;;;;;;;19.60;53.30;;;;;;6320268;28;20516;-69
2023/10/19 08:37:04;;;;;;;;;;;19.60;53.60;;;;;;6319426;28;19931;-68
2023/10/19 08:40:14;;;;;;;;;;;19.60;53.90;;;;;;6319345;28;19920;-68
2023/10/19 08:43:17;;;;;;;;;;;19.60;54.20;;;;;;6316491;28;19912;-70
2023/10/19 08:46:18;;;;;;;;;;;19.60;54.50;;;;;;6318545;28;19915;-69
2023/10/19 08:49:19;;;;;;;;;;;19.60;54.60;;;;;;6319373;28;19919;-68
2023/10/19 08:52:22;;;;;;;;;;;19.60;54.30;;;;;;6318006;28;20282;-69
2023/10/19 08:55:23;;;;;;;;;;;19.70;54.60;;;;;;6310203;28;19939;-68
2023/10/19 08:58:24;;;;;;;;;;;19.70;54.70;;;;;;6317511;28;19965;-67
2023/10/19 09:01:27;;;;;;;;;;;19.70;54.70;;;;;;6315466;28;19951;-68
2023/10/19 09:04:29;;;;;;;;;;;19.70;54.80;;;;;;6319880;28;19912;-68
2023/10/19 09:07:30;;;;;;;;;;;19.80;54.60;;;;;;6313844;28;19916;-68
2023/10/19 09:10:36;;;;;;;;;;;19.70;54.80;;;;;;6318904;28;20320;-68
2023/10/19 09:13:47;;;;;;;;;;;19.70;55.00;;;;;;6318927;28;20286;-68
2023/10/19 09:16:57;;;;;;;;;;;19.70;55.40;;;;;;6314263;28;19915;-69
2023/10/19 09:19:59;;;;;;;;;;;19.70;55.30;;;;;;6318511;28;19913;-72
2023/10/19 09:23:02;;;;;;;;;;;19.70;55.60;;;;;;6323796;28;19999;-69
2023/10/19 09:26:07;;;;;;;;;;;19.60;55.60;;;;;;6319010;28;20361;-69
2023/10/19 09:29:07;;;;;;;;;;;19.70;55.70;;;;;;6312993;28;19919;-68
2023/10/19 09:32:08;;;;;;;;;;;19.70;55.60;;;;;;6319864;28;19987;-69
2023/10/19 09:35:10;;;;;;;;;;;19.80;55.60;;;;;;6322641;28;19986;-67
2023/10/19 09:38:12;;;;;;;;;;;19.70;55.60;;;;;;6322701;28;19908;-65
2023/10/19 09:41:14;;;;;;;;;;;19.70;55.90;;;;;;6318702;28;19924;-66
2023/10/19 09:44:18;;;;;;;;;;;19.70;56.00;;;;;;6320605;28;19923;-63
2023/10/19 09:47:26;;;;;;;;;;;19.70;56.10;;;;;;6321683;28;20375;-63
2023/10/19 09:50:26;;;;;;;;;;;19.70;56.00;;;;;;6322071;28;19935;-61
2023/10/19 09:53:28;;;;;;;;;;;19.70;55.90;;;;;;6322150;28;20355;-64
2023/10/19 09:56:44;;;;;;;;;;;19.60;55.70;;;;;;6321367;28;20347;-65
2023/10/19 09:59:46;;;;;;;;;;;19.70;55.60;;;;;;6321407;28;19908;-62
2023/10/19 10:02:47;;;;;;;;;;;19.60;55.70;;;;;;6325215;28;19909;-62
2023/10/19 10:05:47;;;;;;;;;;;19.70;55.60;;;;;;6322042;28;19920;-64
2023/10/19 10:08:48;;;;;;;;;;;19.80;55.70;;;;;;6321201;28;19919;-65
2023/10/19 10:11:52;;;;;;;;;;;19.90;55.90;;;;;;6322172;28;19915;-65
2023/10/19 10:15:05;;;;;;;;;;;19.90;55.80;;;;;;6323824;28;20020;-65
2023/10/19 10:18:13;;;;;;;;;;;19.90;56.30;;;;;;6324419;28;19923;-65
2023/10/19 10:21:18;;;;;;;;;;;19.90;56.40;;;;;;6316692;28;20383;-67
2023/10/19 10:24:19;;;;;;;;;;;19.90;55.90;;;;;;6321519;28;19959;-67
2023/10/19 10:27:20;;;;;;;;;;;19.90;56.10;;;;;;6321334;28;20275;-67
2023/10/19 10:30:21;;;;;;;;;;;19.90;56.20;;;;;;6321562;28;19915;-67
2023/10/19 10:33:40;;;;;;;;;;;19.90;56.20;;;;;;6324739;28;19995;-64
2023/10/19 10:37:08;;;;;;;;;;;19.90;56.30;;;;;;6315711;28;19908;-66
2023/10/19 10:40:09;;;;;;;;;;;19.90;56.00;;;;;;6321078;28;20002;-66
2023/10/19 10:43:10;;;;;;;;;;;19.90;56.50;;;;;;6319922;28;19931;-66
2023/10/19 10:46:11;;;;;;;;;;;19.90;56.40;;;;;;6319519;28;20332;-67
2023/10/19 10:49:14;;;;;;;;;;;19.90;56.50;;;;;;6321157;28;19969;-66
2023/10/19 10:52:25;;;;;;;;;;;19.90;56.30;;;;;;6317425;28;19995;-67
2023/10/19 10:55:25;;;;;;;;;;;19.90;56.40;;;;;;6323082;28;20007;-67
2023/10/19 10:58:26;;;;;;;;;;;19.90;56.50;;;;;;6324073;28;19965;-66
2023/10/19 11:01:30;;;;;;;;;;;19.90;56.30;;;;;;6320333;28;19908;-66
2023/10/19 11:04:32;;;;;;;;;;;19.90;56.50;;;;;;6323427;28;19947;-66
2023/10/19 11:07:33;;;;;;;;;;;19.90;56.30;;;;;;6320567;28;19963;-65
2023/10/19 11:10:33;;;;;;;;;;;19.90;56.60;;;;;;6320162;28;19916;-66
2023/10/19 11:13:35;;;;;;;;;;;19.90;56.30;;;;;;6325833;28;19998;-67
2023/10/19 11:16:35;;;;;;;;;;;19.90;56.60;;;;;;6320739;28;19974;-68
2023/10/19 11:19:39;;;;;;;;;;;19.90;56.50;;;;;;6324489;28;19920;-67
2023/10/19 11:22:50;;;;;;;;;;;19.90;56.50;;;;;;6314539;28;20351;-66
2023/10/19 11:25:57;;;;;;;;;;;19.90;56.60;;;;;;6324763;28;20282;-65
2023/10/19 11:28:58;;;;;;;;;;;19.90;56.70;;;;;;6320542;28;20264;-65
2023/10/19 11:32:00;;;;;;;;;;;19.80;56.70;;;;;;6318940;28;19915;-64
2023/10/19 11:35:01;;;;;;;;;;;19.80;56.80;;;;;;6319861;28;19912;-65
2023/10/19 11:38:04;;;;;;;;;;;19.80;56.80;;;;;;6318582;28;19921;-66
2023/10/19 11:41:04;;;;;;;;;;;19.80;57.00;;;;;;6319756;28;19928;-65
2023/10/19 11:44:05;;;;;;;;;;;19.80;57.00;;;;;;6319264;28;19940;-65
2023/10/19 11:47:05;;;;;;;;;;;19.80;57.00;;;;;;6318770;28;19965;-63
2023/10/19 11:50:08;;;;;;;;;;;19.70;57.00;;;;;;6319283;28;20230;-63
2023/10/19 11:53:09;;;;;;;;;;;19.70;56.70;;;;;;6319401;28;20371;-64
2023/10/19 11:56:12;;;;;;;;;;;19.70;56.50;;;;;;6318416;28;19977;-63
2023/10/19 11:59:15;;;;;;;;;;;19.70;56.20;;;;;;6315657;28;19915;-64
2023/10/19 12:02:18;;;;;;;;;;;19.80;56.20;;;;;;6318986;28;19912;-63
2023/10/19 12:05:19;;;;;;;;;;;19.80;56.30;;;;;;6323150;28;19908;-63
2023/10/19 12:08:19;;;;;;;;;;;19.90;56.30;;;;;;6296921;28;19920;-63
2023/10/19 12:11:21;;;;;;;;;;;19.90;56.20;;;;;;6322695;28;20567;-64
2023/10/19 12:14:22;;;;;;;;;;;19.90;56.30;;;;;;6322488;28;19912;-64
2023/10/19 12:17:26;;;;;;;;;;;19.90;56.50;;;;;;6315264;28;19908;-63
2023/10/19 12:20:27;;;;;;;;;;;19.90;56.30;;;;;;6318948;28;19913;-63
2023/10/19 12:23:27;;;;;;;;;;;20.00;56.40;;;;;;6318399;28;19916;-63
2023/10/19 12:26:30;;;;;;;;;;;20.00;57.00;;;;;;6323893;28;19927;-63
2023/10/19 12:29:31;;;;;;;;;;;20.00;57.00;;;;;;6311486;28;19916;-63
2023/10/19 12:32:32;;;;;;;;;;;20.00;57.00;;;;;;6318656;28;19915;-63
2023/10/19 12:35:45;;;;;;;;;;;20.00;57.10;;;;;;6318509;28;20359;-64
2023/10/19 12:38:45;;;;;;;;;;;20.00;57.10;;;;;;6318711;28;20011;-66
2023/10/19 12:41:47;;;;;;;;;;;20.00;57.10;;;;;;6319953;28;19916;-66
2023/10/19 12:44:47;;;;;;;;;;;20.00;57.10;;;;;;6326283;28;19955;-64
2023/10/19 12:47:48;;;;;;;;;;;20.00;57.10;;;;;;6319805;28;19916;-63
2023/10/19 12:50:49;;;;;;;;;;;20.00;57.20;;;;;;6306265;28;19916;-64
2023/10/19 12:53:51;;;;;;;;;;;19.90;57.00;;;;;;6318579;28;20383;-64
2023/10/19 12:56:53;;;;;;;;;;;19.90;56.90;;;;;;6321338;28;20325;-62
2023/10/19 12:59:54;;;;;;;;;;;19.90;57.00;;;;;;6320144;28;19969;-62
2023/10/19 13:03:00;;;;;;;;;;;19.90;57.00;;;;;;6318683;28;20260;-62
2023/10/19 13:06:07;;;;;;;;;;;19.80;57.00;;;;;;6317875;28;19923;-63
2023/10/19 13:09:09;;;;;;;;;;;19.80;57.00;;;;;;6317803;28;19916;-64
2023/10/19 13:12:12;;;;;;;;;;;19.80;57.00;;;;;;6323311;28;19912;-64
2023/10/19 13:15:12;;;;;;;;;;;19.80;57.00;;;;;;6316825;28;19915;-62
2023/10/19 13:18:29;;;;;;;;;;;19.80;57.10;;;;;;6317125;28;20339;-63
2023/10/19 13:21:32;;;;;;;;;;;19.80;57.10;;;;;;6318787;28;19908;-63
2023/10/19 13:24:40;;;;;;;;;;;19.80;57.20;;;;;;6320793;28;20027;-63
2023/10/19 13:27:41;;;;;;;;;;;19.80;57.10;;;;;;6317260;28;19912;-63
2023/10/19 13:30:43;;;;;;;;;;;19.80;57.10;;;;;;6317779;28;19908;-64
2023/10/19 13:33:45;;;;;;;;;;;19.80;57.20;;;;;;6318441;28;20057;-63
2023/10/19 13:36:46;;;;;;;;;;;19.80;57.20;;;;;;6317501;28;19912;-63
2023/10/19 13:39:47;;;;;;;;;;;19.70;57.00;;;;;;6318121;28;20374;-63
2023/10/19 13:42:47;;;;;;;;;;;19.80;57.20;;;;;;6317549;28;19915;-64
2023/10/19 13:45:48;;;;;;;;;;;19.70;57.00;;;;;;6317000;28;19920;-63
2023/10/19 13:48:49;;;;;;;;;;;19.70;57.10;;;;;;6317576;28;19918;-63
2023/10/19 13:51:49;;;;;;;;;;;19.80;57.20;;;;;;6317600;28;19951;-63
2023/10/19 13:54:50;;;;;;;;;;;19.80;57.10;;;;;;6317757;28;20050;-63
2023/10/19 13:57:55;;;;;;;;;;;19.80;57.10;;;;;;6317211;28;19912;-63
2023/10/19 14:00:56;;;;;;;;;;;19.80;57.20;;;;;;6318479;28;19908;-63
2023/10/19 14:03:57;;;;;;;;;;;19.80;57.20;;;;;;6322400;28;19918;-63
2023/10/19 14:06:57;;;;;;;;;;;19.80;57.20;;;;;;6319388;28;19958;-64
2023/10/19 14:09:58;;;;;;;;;;;19.70;57.10;;;;;;6322544;28;19912;-63
2023/10/19 14:12:58;;;;;;;;;;;19.70;57.10;;;;;;6326195;28;19993;-63
2023/10/19 14:15:59;;;;;;;;;;;19.70;57.20;;;;;;6321935;28;19971;-63
2023/10/19 14:19:00;;;;;;;;;;;19.70;57.10;;;;;;6321695;28;19915;-63
2023/10/19 14:22:01;;;;;;;;;;;19.70;57.10;;;;;;6321977;28;19916;-63
2023/10/19 14:25:01;;;;;;;;;;;19.70;57.10;;;;;;6322361;28;20378;-64
2023/10/19 14:28:06;;;;;;;;;;;19.70;57.10;;;;;;6322630;28;19923;-63
2023/10/19 14:31:10;;;;;;;;;;;19.70;57.20;;;;;;6326984;28;19912;-63
2023/10/19 14:34:11;;;;;;;;;;;19.70;57.10;;;;;;6322700;28;19908;-62
2023/10/19 14:37:12;;;;;;;;;;;19.70;57.20;;;;;;6327125;28;20321;-64
2023/10/19 14:40:15;;;;;;;;;;;19.70;57.20;;;;;;6322104;28;19920;-65
2023/10/19 14:43:16;;;;;;;;;;;19.70;57.20;;;;;;6321836;28;19991;-64
2023/10/19 14:46:17;;;;;;;;;;;19.70;57.20;;;;;;6318554;28;19916;-72
2023/10/19 14:49:18;;;;;;;;;;;19.80;57.30;;;;;;6319121;28;19999;-68
2023/10/19 14:52:21;;;;;;;;;;;19.70;57.40;;;;;;6320615;28;19919;-68
2023/10/19 14:55:22;;;;;;;;;;;19.70;57.30;;;;;;6326128;28;19908;-72
2023/10/19 14:58:25;;;;;;;;;;;19.70;57.00;;;;;;6324797;28;19912;-67
2023/10/19 15:01:25;;;;;;;;;;;19.70;56.70;;;;;;6319334;28;19993;-66
2023/10/19 15:04:27;;;;;;;;;;;19.60;56.30;;;;;;6329501;28;19916;-65
2023/10/19 15:07:28;;;;;;;;;;;19.60;56.30;;;;;;6321943;28;20050;-63
2023/10/19 15:10:28;;;;;;;;;;;19.60;55.30;;;;;;6321516;28;20278;-65
2023/10/19 15:13:29;;;;;;;;;;;19.60;55.70;;;;;;6321918;28;19985;-67
2023/10/19 15:16:30;;;;;;;;;;;19.60;54.90;;;;;;6322389;28;19915;-71
2023/10/19 15:19:30;;;;;;;;;;;19.70;55.30;;;;;;6319999;28;19931;-67
2023/10/19 15:22:32;;;;;;;;;;;19.70;55.10;;;;;;6320373;28;19919;-69
2023/10/19 15:25:33;;;;;;;;;;;19.60;55.30;;;;;;6324359;28;19912;-65
2023/10/19 15:28:34;;;;;;;;;;;19.70;55.30;;;;;;6324957;28;19916;-67
2023/10/19 15:31:36;;;;;;;;;;;19.70;55.60;;;;;;6318164;28;19908;-68
2023/10/19 15:34:40;;;;;;;;;;;19.70;55.60;;;;;;6318197;28;19916;-67
2023/10/19 15:37:41;;;;;;;;;;;19.70;55.60;;;;;;6319512;28;19950;-67
2023/10/19 15:40:42;;;;;;;;;;;19.70;55.80;;;;;;6319710;28;19971;-66
2023/10/19 15:43:42;;;;;;;;;;;19.70;55.70;;;;;;6319040;28;19908;-66
2023/10/19 15:46:45;;;;;;;;;;;19.70;56.00;;;;;;6322630;28;19916;-67
2023/10/19 15:49:48;;;;;;;;;;;19.70;56.00;;;;;;6319270;28;20463;-65
2023/10/19 15:52:51;;;;;;;;;;;19.70;55.70;;;;;;6318706;28;20359;-66
2023/10/19 15:55:51;;;;;;;;;;;19.80;55.80;;;;;;6318487;28;19916;-68
2023/10/19 15:58:52;;;;;;;;;;;19.80;55.90;;;;;;6323497;28;20346;-69
2023/10/19 16:01:54;;;;;;;;;;;19.70;56.00;;;;;;6318897;28;19914;-70
2023/10/19 16:04:54;;;;;;;;;;;19.70;56.00;;;;;;6319396;28;19916;-70
2023/10/19 16:07:55;;;;;;;;;;;19.70;55.60;;;;;;6319489;28;20393;-67
2023/10/19 16:10:56;;;;;;;;;;;19.70;55.40;;;;;;6313892;28;19918;-69
2023/10/19 16:13:56;;;;;;;;;;;19.70;55.10;;;;;;6318105;28;19937;-64
2023/10/19 16:16:57;;;;;;;;;;;19.60;54.80;;;;;;6316701;28;19915;-64
2023/10/19 16:19:58;;;;;;;;;;;19.70;54.80;;;;;;6316304;28;20380;-66
2023/10/19 16:22:59;;;;;;;;;;;19.60;54.50;;;;;;6309121;28;19916;-66
2023/10/19 16:26:00;;;;;;;;;;;19.60;53.20;;;;;;6317929;28;19920;-66
2023/10/19 16:29:01;;;;;;;;;;;19.70;54.30;;;;;;6316329;28;19915;-66
2023/10/19 16:32:01;;;;;;;;;;;19.70;53.80;;;;;;6307286;28;20359;-66
2023/10/19 16:35:03;;;;;;;;;;;19.70;54.10;;;;;;6320557;28;19977;-66
2023/10/19 16:38:04;;;;;;;;;;;19.80;54.50;;;;;;6313048;28;19915;-66
2023/10/19 16:41:06;;;;;;;;;;;19.80;54.60;;;;;;6320901;28;19923;-65
2023/10/19 16:44:07;;;;;;;;;;;19.70;54.30;;;;;;6315775;28;19917;-65
2023/10/19 16:47:09;;;;;;;;;;;19.70;54.60;;;;;;6312305;28;20042;-66
2023/10/19 16:50:18;;;;;;;;;;;19.70;54.60;;;;;;6315818;28;19953;-66
2023/10/19 16:53:19;;;;;;;;;;;19.70;54.70;;;;;;6318948;28;19908;-66
2023/10/19 16:56:20;;;;;;;;;;;19.70;54.60;;;;;;6321077;28;19915;-66
2023/10/19 16:59:21;;;;;;;;;;;19.70;54.70;;;;;;6312380;28;19979;-66
2023/10/19 17:02:21;;;;;;;;;;;19.70;54.70;;;;;;6312198;28;19916;-65
2023/10/19 17:05:23;;;;;;;;;;;19.70;54.90;;;;;;6316957;28;19908;-66
2023/10/19 17:08:24;;;;;;;;;;;19.70;54.90;;;;;;6320581;28;19912;-65
2023/10/19 17:11:24;;;;;;;;;;;19.70;54.80;;;;;;6319182;28;20393;-66
2023/10/19 17:14:25;;;;;;;;;;;19.70;55.00;;;;;;6313193;28;19908;-66
2023/10/19 17:17:26;;;;;;;;;;;19.70;54.90;;;;;;6316104;28;20059;-65
2023/10/19 17:20:29;;;;;;;;;;;19.70;55.10;;;;;;6315858;28;19912;-66
2023/10/19 17:23:29;;;;;;;;;;;19.60;55.10;;;;;;6315408;28;19912;-66
2023/10/19 17:26:30;;;;;;;;;;;19.70;55.10;;;;;;6323900;28;20351;-66
2023/10/19 17:29:31;;;;;;;;;;;19.70;55.10;;;;;;6315547;28;19909;-65
2023/10/19 17:32:32;;;;;;;;;;;19.60;55.10;;;;;;6314482;28;19916;-66
2023/10/19 17:35:33;;;;;;;;;;;19.70;55.40;;;;;;6314029;28;19915;-66
2023/10/19 17:38:33;;;;;;;;;;;19.70;55.30;;;;;;6318274;28;19916;-66
2023/10/19 17:41:34;;;;;;;;;;;19.70;55.50;;;;;;6313755;28;19943;-65
2023/10/19 17:44:35;;;;;;;;;;;19.60;55.40;;;;;;6316371;28;20298;-66